sensor_id;sensor_type;location;lat;lon;timestamp;temperature;humidity
14798;DHT22;7490;63.708;20.368;2022-11-20T00:00:53;2.60;91.20
14798;DHT22;7490;63.708;20.368;2022-11-20T00:03:19;2.50;91.10
14798;DHT22;7490;63.708;20.368;2022-11-20T00:05:44;2.60;91.10
14798;DHT22;7490;63.708;20.368;2022-11-20T00:08:11;2.50;91.20
14798;DHT22;7490;63.708;20.368;2022-11-20T00:10:37;2.60;91.20
14798;DHT22;7490;63.708;20.368;2022-11-20T00:13:03;2.60;91.20
14798;DHT22;7490;63.708;20.368;2022-11-20T00:15:29;2.60;91.20
14798;DHT22;7490;63.708;20.368;2022-11-20T00:17:55;2.60;91.20
14798;DHT22;7490;63.708;20.368;2022-11-20T00:20:20;2.60;91.10
14798;DHT22;7490;63.708;20.368;2022-11-20T00:22:46;2.60;91.10
14798;DHT22;7490;63.708;20.368;2022-11-20T00:25:12;2.60;91.10
14798;DHT22;7490;63.708;20.368;2022-11-20T00:27:38;2.50;91.00
14798;DHT22;7490;63.708;20.368;2022-11-20T00:30:04;2.50;91.10
14798;DHT22;7490;63.708;20.368;2022-11-20T00:32:30;2.50;91.10
14798;DHT22;7490;63.708;20.368;2022-11-20T00:34:56;2.50;91.10
14798;DHT22;7490;63.708;20.368;2022-11-20T00:37:22;2.40;91.10
14798;DHT22;7490;63.708;20.368;2022-11-20T00:39:47;2.40;91.10
14798;DHT22;7490;63.708;20.368;2022-11-20T00:42:13;2.40;91.10
14798;DHT22;7490;63.708;20.368;2022-11-20T00:44:39;2.40;91.10
14798;DHT22;7490;63.708;20.368;2022-11-20T00:47:05;2.40;91.20
14798;DHT22;7490;63.708;20.368;2022-11-20T00:49:30;2.40;91.20
14798;DHT22;7490;63.708;20.368;2022-11-20T00:51:56;2.40;91.10
14798;DHT22;7490;63.708;20.368;2022-11-20T00:54:22;2.50;91.10
14798;DHT22;7490;63.708;20.368;2022-11-20T00:56:47;2.40;91.00
14798;DHT22;7490;63.708;20.368;2022-11-20T00:59:13;2.40;91.00
14798;DHT22;7490;63.708;20.368;2022-11-20T01:01:39;2.40;91.00
14798;DHT22;7490;63.708;20.368;2022-11-20T01:04:05;2.30;91.10
14798;DHT22;7490;63.708;20.368;2022-11-20T01:06:33;2.30;91.10
14798;DHT22;7490;63.708;20.368;2022-11-20T01:09:02;2.30;91.10
14798;DHT22;7490;63.708;20.368;2022-11-20T01:11:34;2.30;91.10
14798;DHT22;7490;63.708;20.368;2022-11-20T01:14:03;2.20;91.10
14798;DHT22;7490;63.708;20.368;2022-11-20T01:16:34;2.20;91.10
14798;DHT22;7490;63.708;20.368;2022-11-20T01:19:03;2.20;91.10
14798;DHT22;7490;63.708;20.368;2022-11-20T01:21:35;2.20;91.20
14798;DHT22;7490;63.708;20.368;2022-11-20T01:24:02;2.20;91.20
14798;DHT22;7490;63.708;20.368;2022-11-20T01:26:31;2.20;91.20
14798;DHT22;7490;63.708;20.368;2022-11-20T01:28:58;2.20;91.20
14798;DHT22;7490;63.708;20.368;2022-11-20T01:31:30;2.10;91.10
14798;DHT22;7490;63.708;20.368;2022-11-20T01:33:59;2.10;91.10
14798;DHT22;7490;63.708;20.368;2022-11-20T01:36:27;2.10;91.10
14798;DHT22;7490;63.708;20.368;2022-11-20T01:38:58;2.10;91.10
14798;DHT22;7490;63.708;20.368;2022-11-20T01:41:25;2.00;91.00
14798;DHT22;7490;63.708;20.368;2022-11-20T01:44:12;2.00;91.00
14798;DHT22;7490;63.708;20.368;2022-11-20T01:47:02;1.90;91.10
14798;DHT22;7490;63.708;20.368;2022-11-20T01:49:40;1.90;91.10
14798;DHT22;7490;63.708;20.368;2022-11-20T01:52:15;1.80;91.10
14798;DHT22;7490;63.708;20.368;2022-11-20T01:54:52;1.80;91.10
14798;DHT22;7490;63.708;20.368;2022-11-20T01:57:20;1.70;91.10
14798;DHT22;7490;63.708;20.368;2022-11-20T01:59:53;1.70;91.10
14798;DHT22;7490;63.708;20.368;2022-11-20T02:02:20;1.70;91.20
14798;DHT22;7490;63.708;20.368;2022-11-20T02:04:47;1.70;91.30
14798;DHT22;7490;63.708;20.368;2022-11-20T02:07:14;1.70;91.30
14798;DHT22;7490;63.708;20.368;2022-11-20T02:09:41;1.70;91.40
14798;DHT22;7490;63.708;20.368;2022-11-20T02:12:06;1.70;91.30
14798;DHT22;7490;63.708;20.368;2022-11-20T02:14:52;1.70;91.20
14798;DHT22;7490;63.708;20.368;2022-11-20T02:17:18;1.70;91.20
14798;DHT22;7490;63.708;20.368;2022-11-20T02:19:43;1.70;91.30
14798;DHT22;7490;63.708;20.368;2022-11-20T02:22:31;1.70;91.30
14798;DHT22;7490;63.708;20.368;2022-11-20T02:24:59;1.70;91.30
14798;DHT22;7490;63.708;20.368;2022-11-20T02:27:26;1.70;91.30
14798;DHT22;7490;63.708;20.368;2022-11-20T02:29:53;1.70;91.30
14798;DHT22;7490;63.708;20.368;2022-11-20T02:32:21;1.70;91.30
14798;DHT22;7490;63.708;20.368;2022-11-20T02:34:48;1.70;91.40
14798;DHT22;7490;63.708;20.368;2022-11-20T02:37:14;1.80;91.50
14798;DHT22;7490;63.708;20.368;2022-11-20T02:39:40;1.80;91.40
14798;DHT22;7490;63.708;20.368;2022-11-20T02:42:07;1.80;91.30
14798;DHT22;7490;63.708;20.368;2022-11-20T02:44:32;1.80;91.30
14798;DHT22;7490;63.708;20.368;2022-11-20T02:46:58;1.80;91.30
14798;DHT22;7490;63.708;20.368;2022-11-20T02:49:25;1.90;91.30
14798;DHT22;7490;63.708;20.368;2022-11-20T02:51:51;1.90;91.30
14798;DHT22;7490;63.708;20.368;2022-11-20T02:54:16;1.90;91.30
14798;DHT22;7490;63.708;20.368;2022-11-20T02:56:42;1.90;91.30
14798;DHT22;7490;63.708;20.368;2022-11-20T02:59:09;1.90;91.20
14798;DHT22;7490;63.708;20.368;2022-11-20T03:01:34;1.90;91.20
14798;DHT22;7490;63.708;20.368;2022-11-20T03:04:00;1.90;91.30
14798;DHT22;7490;63.708;20.368;2022-11-20T03:06:26;1.90;91.20
14798;DHT22;7490;63.708;20.368;2022-11-20T03:08:51;1.90;91.20
14798;DHT22;7490;63.708;20.368;2022-11-20T03:11:17;2.00;91.30
14798;DHT22;7490;63.708;20.368;2022-11-20T03:13:43;1.90;91.30
14798;DHT22;7490;63.708;20.368;2022-11-20T03:16:11;1.90;91.30
14798;DHT22;7490;63.708;20.368;2022-11-20T03:18:38;2.00;91.30
14798;DHT22;7490;63.708;20.368;2022-11-20T03:21:04;2.00;91.40
14798;DHT22;7490;63.708;20.368;2022-11-20T03:23:31;2.00;91.30
14798;DHT22;7490;63.708;20.368;2022-11-20T03:26:08;2.00;91.30
14798;DHT22;7490;63.708;20.368;2022-11-20T03:28:34;2.00;91.30
14798;DHT22;7490;63.708;20.368;2022-11-20T03:31:14;2.00;91.20
14798;DHT22;7490;63.708;20.368;2022-11-20T03:33:41;2.00;91.20
14798;DHT22;7490;63.708;20.368;2022-11-20T03:36:10;2.00;91.20
14798;DHT22;7490;63.708;20.368;2022-11-20T03:38:36;1.90;91.20
14798;DHT22;7490;63.708;20.368;2022-11-20T03:41:05;1.90;91.30
14798;DHT22;7490;63.708;20.368;2022-11-20T03:43:32;1.90;91.40
14798;DHT22;7490;63.708;20.368;2022-11-20T03:45:58;2.00;91.50
14798;DHT22;7490;63.708;20.368;2022-11-20T03:48:24;2.00;91.50
14798;DHT22;7490;63.708;20.368;2022-11-20T03:50:51;2.00;91.40
14798;DHT22;7490;63.708;20.368;2022-11-20T03:53:16;2.00;91.50
14798;DHT22;7490;63.708;20.368;2022-11-20T03:55:42;2.10;91.40
14798;DHT22;7490;63.708;20.368;2022-11-20T03:58:08;2.10;91.40
14798;DHT22;7490;63.708;20.368;2022-11-20T04:00:34;2.10;91.30
14798;DHT22;7490;63.708;20.368;2022-11-20T04:03:03;2.10;91.30
14798;DHT22;7490;63.708;20.368;2022-11-20T04:05:29;2.10;91.30
14798;DHT22;7490;63.708;20.368;2022-11-20T04:07:55;2.10;91.40
14798;DHT22;7490;63.708;20.368;2022-11-20T04:10:20;2.10;91.40
14798;DHT22;7490;63.708;20.368;2022-11-20T04:12:46;2.10;91.40
14798;DHT22;7490;63.708;20.368;2022-11-20T04:15:11;2.00;91.30
14798;DHT22;7490;63.708;20.368;2022-11-20T04:17:37;2.00;91.30
14798;DHT22;7490;63.708;20.368;2022-11-20T04:20:03;2.00;91.30
14798;DHT22;7490;63.708;20.368;2022-11-20T04:22:29;1.90;91.40
14798;DHT22;7490;63.708;20.368;2022-11-20T04:24:54;1.90;91.50
14798;DHT22;7490;63.708;20.368;2022-11-20T04:27:20;1.90;91.50
14798;DHT22;7490;63.708;20.368;2022-11-20T04:29:46;2.00;91.50
14798;DHT22;7490;63.708;20.368;2022-11-20T04:32:12;2.00;91.40
14798;DHT22;7490;63.708;20.368;2022-11-20T04:34:37;2.00;91.50
14798;DHT22;7490;63.708;20.368;2022-11-20T04:37:03;2.00;91.50
14798;DHT22;7490;63.708;20.368;2022-11-20T04:39:29;2.00;91.50
14798;DHT22;7490;63.708;20.368;2022-11-20T04:41:54;2.00;91.40
14798;DHT22;7490;63.708;20.368;2022-11-20T04:44:39;2.00;91.50
14798;DHT22;7490;63.708;20.368;2022-11-20T04:47:04;2.00;91.50
14798;DHT22;7490;63.708;20.368;2022-11-20T04:49:30;2.00;91.60
14798;DHT22;7490;63.708;20.368;2022-11-20T04:51:57;2.00;91.60
14798;DHT22;7490;63.708;20.368;2022-11-20T04:54:23;2.00;91.50
14798;DHT22;7490;63.708;20.368;2022-11-20T04:56:49;1.90;91.50
14798;DHT22;7490;63.708;20.368;2022-11-20T04:59:15;1.90;91.50
14798;DHT22;7490;63.708;20.368;2022-11-20T05:01:41;1.90;91.50
14798;DHT22;7490;63.708;20.368;2022-11-20T05:04:06;1.90;91.60
14798;DHT22;7490;63.708;20.368;2022-11-20T05:06:32;2.10;91.70
14798;DHT22;7490;63.708;20.368;2022-11-20T05:08:58;2.00;91.60
14798;DHT22;7490;63.708;20.368;2022-11-20T05:11:24;1.90;91.60
14798;DHT22;7490;63.708;20.368;2022-11-20T05:13:51;2.00;91.70
14798;DHT22;7490;63.708;20.368;2022-11-20T05:16:19;2.00;91.70
14798;DHT22;7490;63.708;20.368;2022-11-20T05:18:46;2.00;91.70
14798;DHT22;7490;63.708;20.368;2022-11-20T05:21:12;2.00;91.70
14798;DHT22;7490;63.708;20.368;2022-11-20T05:23:39;2.00;91.70
14798;DHT22;7490;63.708;20.368;2022-11-20T05:26:06;2.00;91.60
14798;DHT22;7490;63.708;20.368;2022-11-20T05:28:33;2.00;91.70
14798;DHT22;7490;63.708;20.368;2022-11-20T05:31:31;2.00;91.70
14798;DHT22;7490;63.708;20.368;2022-11-20T05:33:57;2.10;91.70
14798;DHT22;7490;63.708;20.368;2022-11-20T05:36:23;2.10;91.70
14798;DHT22;7490;63.708;20.368;2022-11-20T05:38:49;2.00;91.60
14798;DHT22;7490;63.708;20.368;2022-11-20T05:41:17;2.00;91.60
14798;DHT22;7490;63.708;20.368;2022-11-20T05:43:44;2.00;91.70
14798;DHT22;7490;63.708;20.368;2022-11-20T05:46:13;2.00;91.80
14798;DHT22;7490;63.708;20.368;2022-11-20T05:48:40;2.00;91.70
14798;DHT22;7490;63.708;20.368;2022-11-20T05:51:08;2.00;91.70
14798;DHT22;7490;63.708;20.368;2022-11-20T05:53:34;2.00;91.60
14798;DHT22;7490;63.708;20.368;2022-11-20T05:56:02;2.00;91.60
14798;DHT22;7490;63.708;20.368;2022-11-20T05:58:29;1.60;91.50
14798;DHT22;7490;63.708;20.368;2022-11-20T06:01:02;2.00;91.60
14798;DHT22;7490;63.708;20.368;2022-11-20T06:03:28;2.00;91.60
14798;DHT22;7490;63.708;20.368;2022-11-20T06:05:53;2.00;91.60
14798;DHT22;7490;63.708;20.368;2022-11-20T06:08:19;2.00;91.60
14798;DHT22;7490;63.708;20.368;2022-11-20T06:10:45;2.00;91.50
14798;DHT22;7490;63.708;20.368;2022-11-20T06:13:10;2.20;91.50
14798;DHT22;7490;63.708;20.368;2022-11-20T06:15:36;1.90;91.40
14798;DHT22;7490;63.708;20.368;2022-11-20T06:18:01;1.90;91.50
14798;DHT22;7490;63.708;20.368;2022-11-20T06:20:27;1.90;91.50
14798;DHT22;7490;63.708;20.368;2022-11-20T06:22:53;1.80;91.50
14798;DHT22;7490;63.708;20.368;2022-11-20T06:25:18;1.80;91.50
14798;DHT22;7490;63.708;20.368;2022-11-20T06:27:44;1.80;91.60
14798;DHT22;7490;63.708;20.368;2022-11-20T06:30:10;1.80;91.60
14798;DHT22;7490;63.708;20.368;2022-11-20T06:32:36;1.80;91.50
14798;DHT22;7490;63.708;20.368;2022-11-20T06:35:02;1.80;91.60
14798;DHT22;7490;63.708;20.368;2022-11-20T06:37:27;1.90;91.60
14798;DHT22;7490;63.708;20.368;2022-11-20T06:39:53;1.90;91.60
14798;DHT22;7490;63.708;20.368;2022-11-20T06:42:18;1.90;91.60
14798;DHT22;7490;63.708;20.368;2022-11-20T06:44:44;1.80;91.60
14798;DHT22;7490;63.708;20.368;2022-11-20T06:47:10;1.80;91.50
14798;DHT22;7490;63.708;20.368;2022-11-20T06:49:35;1.80;91.30
14798;DHT22;7490;63.708;20.368;2022-11-20T06:52:04;1.70;91.30
14798;DHT22;7490;63.708;20.368;2022-11-20T06:54:29;1.70;91.20
14798;DHT22;7490;63.708;20.368;2022-11-20T06:56:55;1.70;91.40
14798;DHT22;7490;63.708;20.368;2022-11-20T06:59:20;1.60;91.50
14798;DHT22;7490;63.708;20.368;2022-11-20T07:01:46;1.60;91.60
14798;DHT22;7490;63.708;20.368;2022-11-20T07:04:12;1.60;91.60
14798;DHT22;7490;63.708;20.368;2022-11-20T07:06:38;1.70;91.60
14798;DHT22;7490;63.708;20.368;2022-11-20T07:09:04;1.60;91.40
14798;DHT22;7490;63.708;20.368;2022-11-20T07:11:29;1.60;91.50
14798;DHT22;7490;63.708;20.368;2022-11-20T07:13:56;1.50;91.50
14798;DHT22;7490;63.708;20.368;2022-11-20T07:16:22;1.50;91.60
14798;DHT22;7490;63.708;20.368;2022-11-20T07:18:48;1.60;91.70
14798;DHT22;7490;63.708;20.368;2022-11-20T07:21:13;1.60;91.80
14798;DHT22;7490;63.708;20.368;2022-11-20T07:23:39;1.70;91.90
14798;DHT22;7490;63.708;20.368;2022-11-20T07:26:07;1.70;91.90
14798;DHT22;7490;63.708;20.368;2022-11-20T07:28:33;1.80;91.80
14798;DHT22;7490;63.708;20.368;2022-11-20T07:30:59;1.80;91.70
14798;DHT22;7490;63.708;20.368;2022-11-20T07:33:25;1.70;91.70
14798;DHT22;7490;63.708;20.368;2022-11-20T07:35:50;1.70;91.70
14798;DHT22;7490;63.708;20.368;2022-11-20T07:38:16;1.70;91.80
14798;DHT22;7490;63.708;20.368;2022-11-20T07:40:42;1.70;91.90
14798;DHT22;7490;63.708;20.368;2022-11-20T07:43:07;1.80;91.80
14798;DHT22;7490;63.708;20.368;2022-11-20T07:45:33;1.70;91.70
14798;DHT22;7490;63.708;20.368;2022-11-20T07:47:59;1.70;91.70
14798;DHT22;7490;63.708;20.368;2022-11-20T07:50:24;1.80;91.80
14798;DHT22;7490;63.708;20.368;2022-11-20T07:52:50;1.80;91.90
14798;DHT22;7490;63.708;20.368;2022-11-20T07:55:16;1.80;92.00
14798;DHT22;7490;63.708;20.368;2022-11-20T07:57:42;1.90;92.10
14798;DHT22;7490;63.708;20.368;2022-11-20T08:00:09;2.00;92.10
14798;DHT22;7490;63.708;20.368;2022-11-20T08:02:39;2.00;92.10
14798;DHT22;7490;63.708;20.368;2022-11-20T08:05:05;2.00;92.20
14798;DHT22;7490;63.708;20.368;2022-11-20T08:07:42;2.10;92.20
14798;DHT22;7490;63.708;20.368;2022-11-20T08:10:09;2.20;92.30
14798;DHT22;7490;63.708;20.368;2022-11-20T08:12:35;2.20;92.20
14798;DHT22;7490;63.708;20.368;2022-11-20T08:15:20;2.20;92.20
14798;DHT22;7490;63.708;20.368;2022-11-20T08:17:46;2.30;92.30
14798;DHT22;7490;63.708;20.368;2022-11-20T08:20:11;2.30;92.30
14798;DHT22;7490;63.708;20.368;2022-11-20T08:22:37;2.40;92.20
14798;DHT22;7490;63.708;20.368;2022-11-20T08:25:03;2.40;92.20
14798;DHT22;7490;63.708;20.368;2022-11-20T08:27:29;2.40;92.20
14798;DHT22;7490;63.708;20.368;2022-11-20T08:29:56;2.40;92.20
14798;DHT22;7490;63.708;20.368;2022-11-20T08:32:22;2.50;92.30
14798;DHT22;7490;63.708;20.368;2022-11-20T08:34:47;2.50;92.30
14798;DHT22;7490;63.708;20.368;2022-11-20T08:37:13;2.50;92.30
14798;DHT22;7490;63.708;20.368;2022-11-20T08:39:39;2.50;92.30
14798;DHT22;7490;63.708;20.368;2022-11-20T08:42:07;2.50;92.40
14798;DHT22;7490;63.708;20.368;2022-11-20T08:44:33;2.60;92.30
14798;DHT22;7490;63.708;20.368;2022-11-20T08:47:00;2.60;92.30
14798;DHT22;7490;63.708;20.368;2022-11-20T08:49:26;2.60;92.40
14798;DHT22;7490;63.708;20.368;2022-11-20T08:51:51;2.60;92.40
14798;DHT22;7490;63.708;20.368;2022-11-20T08:54:19;2.60;92.40
14798;DHT22;7490;63.708;20.368;2022-11-20T08:56:47;2.70;92.40
14798;DHT22;7490;63.708;20.368;2022-11-20T08:59:13;2.70;92.40
14798;DHT22;7490;63.708;20.368;2022-11-20T09:01:38;2.70;92.30
14798;DHT22;7490;63.708;20.368;2022-11-20T09:04:04;2.70;92.40
14798;DHT22;7490;63.708;20.368;2022-11-20T09:06:30;2.70;92.30
14798;DHT22;7490;63.708;20.368;2022-11-20T09:08:56;2.80;92.50
14798;DHT22;7490;63.708;20.368;2022-11-20T09:11:22;2.80;92.50
14798;DHT22;7490;63.708;20.368;2022-11-20T09:13:48;2.90;92.50
14798;DHT22;7490;63.708;20.368;2022-11-20T09:16:14;3.00;92.60
14798;DHT22;7490;63.708;20.368;2022-11-20T09:18:39;3.10;92.60
14798;DHT22;7490;63.708;20.368;2022-11-20T09:21:10;3.20;92.60
14798;DHT22;7490;63.708;20.368;2022-11-20T09:23:37;3.20;92.40
14798;DHT22;7490;63.708;20.368;2022-11-20T09:26:05;3.30;92.40
14798;DHT22;7490;63.708;20.368;2022-11-20T09:28:31;3.30;92.30
14798;DHT22;7490;63.708;20.368;2022-11-20T09:30:57;3.30;92.30
14798;DHT22;7490;63.708;20.368;2022-11-20T09:33:22;3.30;92.20
14798;DHT22;7490;63.708;20.368;2022-11-20T09:35:48;3.30;92.20
14798;DHT22;7490;63.708;20.368;2022-11-20T09:38:14;3.40;92.30
14798;DHT22;7490;63.708;20.368;2022-11-20T09:41:03;3.40;92.20
14798;DHT22;7490;63.708;20.368;2022-11-20T09:46:38;3.40;92.20
14798;DHT22;7490;63.708;20.368;2022-11-20T09:50:07;3.40;92.20
14798;DHT22;7490;63.708;20.368;2022-11-20T09:52:20;3.40;92.20
14798;DHT22;7490;63.708;20.368;2022-11-20T09:54:48;3.40;92.20
14798;DHT22;7490;63.708;20.368;2022-11-20T09:57:18;3.40;92.30
14798;DHT22;7490;63.708;20.368;2022-11-20T09:59:53;3.50;92.30
14798;DHT22;7490;63.708;20.368;2022-11-20T10:05:02;3.60;92.30
14798;DHT22;7490;63.708;20.368;2022-11-20T10:07:55;3.60;92.30
14798;DHT22;7490;63.708;20.368;2022-11-20T10:10:34;3.60;92.20
14798;DHT22;7490;63.708;20.368;2022-11-20T10:22:14;3.60;92.20
14798;DHT22;7490;63.708;20.368;2022-11-20T10:24:53;3.60;92.10
14798;DHT22;7490;63.708;20.368;2022-11-20T10:30:02;3.60;92.20
14798;DHT22;7490;63.708;20.368;2022-11-20T10:32:35;3.60;92.20
14798;DHT22;7490;63.708;20.368;2022-11-20T10:35:16;3.60;92.20
14798;DHT22;7490;63.708;20.368;2022-11-20T10:37:46;3.60;92.20
14798;DHT22;7490;63.708;20.368;2022-11-20T10:40:24;3.50;92.10
14798;DHT22;7490;63.708;20.368;2022-11-20T10:46:02;3.50;92.10
14798;DHT22;7490;63.708;20.368;2022-11-20T10:48:31;3.50;92.30
14798;DHT22;7490;63.708;20.368;2022-11-20T10:56:40;3.50;92.20
14798;DHT22;7490;63.708;20.368;2022-11-20T10:59:42;3.50;92.10
14798;DHT22;7490;63.708;20.368;2022-11-20T11:02:22;3.50;92.20
14798;DHT22;7490;63.708;20.368;2022-11-20T11:04:53;3.50;92.30
14798;DHT22;7490;63.708;20.368;2022-11-20T11:07:29;3.50;92.20
14798;DHT22;7490;63.708;20.368;2022-11-20T11:09:56;3.60;92.30
14798;DHT22;7490;63.708;20.368;2022-11-20T11:12:25;3.60;92.20
14798;DHT22;7490;63.708;20.368;2022-11-20T11:14:54;3.60;92.20
14798;DHT22;7490;63.708;20.368;2022-11-20T11:17:28;3.60;92.20
14798;DHT22;7490;63.708;20.368;2022-11-20T11:20:19;3.70;92.20
14798;DHT22;7490;63.708;20.368;2022-11-20T11:22:56;3.70;92.20
14798;DHT22;7490;63.708;20.368;2022-11-20T11:25:35;3.70;92.20
14798;DHT22;7490;63.708;20.368;2022-11-20T11:28:25;3.70;92.20
14798;DHT22;7490;63.708;20.368;2022-11-20T11:30:51;3.70;92.20
14798;DHT22;7490;63.708;20.368;2022-11-20T11:33:22;3.70;92.10
14798;DHT22;7490;63.708;20.368;2022-11-20T11:35:50;3.70;92.20
14798;DHT22;7490;63.708;20.368;2022-11-20T11:38:23;3.70;92.50
14798;DHT22;7490;63.708;20.368;2022-11-20T11:40:54;3.70;92.10
14798;DHT22;7490;63.708;20.368;2022-11-20T11:43:23;3.70;92.10
14798;DHT22;7490;63.708;20.368;2022-11-20T11:49:10;3.70;92.00
14798;DHT22;7490;63.708;20.368;2022-11-20T11:54:23;3.70;92.00
14798;DHT22;7490;63.708;20.368;2022-11-20T11:56:49;3.70;92.00
14798;DHT22;7490;63.708;20.368;2022-11-20T11:59:27;3.70;92.00
14798;DHT22;7490;63.708;20.368;2022-11-20T12:02:02;3.70;92.00
14798;DHT22;7490;63.708;20.368;2022-11-20T12:05:24;3.70;92.00
14798;DHT22;7490;63.708;20.368;2022-11-20T12:07:43;3.70;92.00
14798;DHT22;7490;63.708;20.368;2022-11-20T12:10:23;3.70;91.90
14798;DHT22;7490;63.708;20.368;2022-11-20T12:13:15;3.60;91.90
14798;DHT22;7490;63.708;20.368;2022-11-20T12:15:45;3.60;92.00
14798;DHT22;7490;63.708;20.368;2022-11-20T12:18:18;3.60;91.90
14798;DHT22;7490;63.708;20.368;2022-11-20T12:34:55;3.60;91.90
14798;DHT22;7490;63.708;20.368;2022-11-20T12:40:24;3.50;91.90
14798;DHT22;7490;63.708;20.368;2022-11-20T12:51:31;3.40;91.90
14798;DHT22;7490;63.708;20.368;2022-11-20T12:56:47;3.40;91.90
14798;DHT22;7490;63.708;20.368;2022-11-20T13:02:39;3.40;91.90
14798;DHT22;7490;63.708;20.368;2022-11-20T13:06:29;3.40;91.90
14798;DHT22;7490;63.708;20.368;2022-11-20T13:09:30;3.40;92.00
14798;DHT22;7490;63.708;20.368;2022-11-20T13:20:45;3.50;92.00
14798;DHT22;7490;63.708;20.368;2022-11-20T13:23:25;3.50;91.90
14798;DHT22;7490;63.708;20.368;2022-11-20T13:26:01;3.50;91.90
14798;DHT22;7490;63.708;20.368;2022-11-20T13:28:29;3.50;91.90
14798;DHT22;7490;63.708;20.368;2022-11-20T13:30:56;3.50;92.00
14798;DHT22;7490;63.708;20.368;2022-11-20T13:33:32;3.50;92.00
14798;DHT22;7490;63.708;20.368;2022-11-20T13:36:22;3.50;92.00
14798;DHT22;7490;63.708;20.368;2022-11-20T13:38:50;3.40;92.00
14798;DHT22;7490;63.708;20.368;2022-11-20T13:41:29;3.40;92.00
14798;DHT22;7490;63.708;20.368;2022-11-20T13:46:45;3.40;92.00
14798;DHT22;7490;63.708;20.368;2022-11-20T13:49:34;3.40;92.00
14798;DHT22;7490;63.708;20.368;2022-11-20T14:00:22;3.30;92.00
14798;DHT22;7490;63.708;20.368;2022-11-20T14:05:49;3.20;92.00
14798;DHT22;7490;63.708;20.368;2022-11-20T14:08:27;3.20;92.00
14798;DHT22;7490;63.708;20.368;2022-11-20T14:11:29;3.20;92.00
14798;DHT22;7490;63.708;20.368;2022-11-20T14:14:04;3.20;92.10
14798;DHT22;7490;63.708;20.368;2022-11-20T14:16:35;3.20;92.20
14798;DHT22;7490;63.708;20.368;2022-11-20T14:19:25;3.20;92.20
14798;DHT22;7490;63.708;20.368;2022-11-20T14:24:37;3.20;92.20
14798;DHT22;7490;63.708;20.368;2022-11-20T14:27:03;3.20;92.20
14798;DHT22;7490;63.708;20.368;2022-11-20T14:29:34;3.20;92.20
14798;DHT22;7490;63.708;20.368;2022-11-20T14:32:01;3.20;92.20
14798;DHT22;7490;63.708;20.368;2022-11-20T14:34:33;3.20;92.20
14798;DHT22;7490;63.708;20.368;2022-11-20T14:37:05;3.20;92.20
14798;DHT22;7490;63.708;20.368;2022-11-20T14:39:40;3.20;92.30
14798;DHT22;7490;63.708;20.368;2022-11-20T14:42:20;3.20;92.30
14798;DHT22;7490;63.708;20.368;2022-11-20T14:44:48;3.20;92.30
14798;DHT22;7490;63.708;20.368;2022-11-20T14:47:23;3.20;92.20
14798;DHT22;7490;63.708;20.368;2022-11-20T14:49:51;3.20;92.20
14798;DHT22;7490;63.708;20.368;2022-11-20T14:52:26;3.20;92.10
14798;DHT22;7490;63.708;20.368;2022-11-20T14:54:54;3.20;92.20
14798;DHT22;7490;63.708;20.368;2022-11-20T14:57:35;3.20;92.20
14798;DHT22;7490;63.708;20.368;2022-11-20T15:02:41;3.20;92.30
14798;DHT22;7490;63.708;20.368;2022-11-20T15:05:08;3.30;92.30
14798;DHT22;7490;63.708;20.368;2022-11-20T15:07:39;3.30;92.30
14798;DHT22;7490;63.708;20.368;2022-11-20T15:10:09;3.30;92.40
14798;DHT22;7490;63.708;20.368;2022-11-20T15:12:38;3.30;92.40
14798;DHT22;7490;63.708;20.368;2022-11-20T15:15:06;3.30;92.50
14798;DHT22;7490;63.708;20.368;2022-11-20T15:17:32;3.30;92.50
14798;DHT22;7490;63.708;20.368;2022-11-20T15:20:02;3.30;92.60
14798;DHT22;7490;63.708;20.368;2022-11-20T15:22:30;3.30;92.60
14798;DHT22;7490;63.708;20.368;2022-11-20T15:24:56;3.40;92.60
14798;DHT22;7490;63.708;20.368;2022-11-20T15:27:22;3.40;92.60
14798;DHT22;7490;63.708;20.368;2022-11-20T15:29:48;3.40;92.50
14798;DHT22;7490;63.708;20.368;2022-11-20T15:32:14;3.40;92.40
14798;DHT22;7490;63.708;20.368;2022-11-20T15:34:42;3.30;92.40
14798;DHT22;7490;63.708;20.368;2022-11-20T15:37:07;3.30;92.60
14798;DHT22;7490;63.708;20.368;2022-11-20T15:39:33;3.30;92.50
14798;DHT22;7490;63.708;20.368;2022-11-20T15:41:59;3.40;92.50
14798;DHT22;7490;63.708;20.368;2022-11-20T15:44:25;3.40;92.30
14798;DHT22;7490;63.708;20.368;2022-11-20T15:46:51;3.30;92.20
14798;DHT22;7490;63.708;20.368;2022-11-20T15:49:17;3.30;92.20
14798;DHT22;7490;63.708;20.368;2022-11-20T15:51:47;3.30;92.10
14798;DHT22;7490;63.708;20.368;2022-11-20T15:54:17;3.30;92.10
14798;DHT22;7490;63.708;20.368;2022-11-20T15:56:45;3.20;92.00
14798;DHT22;7490;63.708;20.368;2022-11-20T15:59:12;3.20;91.80
14798;DHT22;7490;63.708;20.368;2022-11-20T16:01:40;3.10;91.70
14798;DHT22;7490;63.708;20.368;2022-11-20T16:04:14;3.00;91.70
14798;DHT22;7490;63.708;20.368;2022-11-20T16:06:40;3.00;91.50
14798;DHT22;7490;63.708;20.368;2022-11-20T16:09:07;2.80;91.50
14798;DHT22;7490;63.708;20.368;2022-11-20T16:11:33;2.80;91.70
14798;DHT22;7490;63.708;20.368;2022-11-20T16:14:02;2.70;91.90
14798;DHT22;7490;63.708;20.368;2022-11-20T16:16:47;2.70;91.90
14798;DHT22;7490;63.708;20.368;2022-11-20T16:19:15;2.70;92.00
14798;DHT22;7490;63.708;20.368;2022-11-20T16:21:41;2.70;91.90
14798;DHT22;7490;63.708;20.368;2022-11-20T16:24:10;2.70;92.00
14798;DHT22;7490;63.708;20.368;2022-11-20T16:26:37;2.70;92.00
14798;DHT22;7490;63.708;20.368;2022-11-20T16:29:04;2.70;92.00
14798;DHT22;7490;63.708;20.368;2022-11-20T16:31:30;2.70;92.00
14798;DHT22;7490;63.708;20.368;2022-11-20T16:33:58;2.80;92.10
14798;DHT22;7490;63.708;20.368;2022-11-20T16:36:26;2.80;92.20
14798;DHT22;7490;63.708;20.368;2022-11-20T16:38:54;2.80;92.20
14798;DHT22;7490;63.708;20.368;2022-11-20T16:41:21;2.80;92.10
14798;DHT22;7490;63.708;20.368;2022-11-20T16:46:19;2.90;92.10
14798;DHT22;7490;63.708;20.368;2022-11-20T16:48:57;2.90;92.10
14798;DHT22;7490;63.708;20.368;2022-11-20T16:51:24;2.90;92.10
14798;DHT22;7490;63.708;20.368;2022-11-20T16:53:51;2.90;92.10
14798;DHT22;7490;63.708;20.368;2022-11-20T16:56:19;2.90;92.10
14798;DHT22;7490;63.708;20.368;2022-11-20T16:58:46;2.90;92.10
14798;DHT22;7490;63.708;20.368;2022-11-20T17:01:15;2.90;92.00
14798;DHT22;7490;63.708;20.368;2022-11-20T17:03:42;2.90;92.00
14798;DHT22;7490;63.708;20.368;2022-11-20T17:06:15;2.90;92.00
14798;DHT22;7490;63.708;20.368;2022-11-20T17:08:41;2.90;92.10
14798;DHT22;7490;63.708;20.368;2022-11-20T17:11:09;2.90;92.10
14798;DHT22;7490;63.708;20.368;2022-11-20T17:13:36;2.80;92.10
14798;DHT22;7490;63.708;20.368;2022-11-20T17:16:03;2.90;92.20
14798;DHT22;7490;63.708;20.368;2022-11-20T17:18:30;2.90;92.20
14798;DHT22;7490;63.708;20.368;2022-11-20T17:20:57;2.90;92.10
14798;DHT22;7490;63.708;20.368;2022-11-20T17:23:27;2.90;92.10
14798;DHT22;7490;63.708;20.368;2022-11-20T17:26:03;2.90;92.10
14798;DHT22;7490;63.708;20.368;2022-11-20T17:28:33;2.90;92.00
14798;DHT22;7490;63.708;20.368;2022-11-20T17:31:04;2.90;92.00
14798;DHT22;7490;63.708;20.368;2022-11-20T17:33:30;2.90;92.00